Time;durP1;ratioP1;P1;durP2;ratioP2;P2;SDS_P1;SDS_P2;PMS_P1;PMS_P2;Temp;Humidity;BMP_temperature;BMP_pressure;BME280_temperature;BME280_humidity;BME280_pressure;Samples;Min_cycle;Max_cycle;Signal;HPM_P1;HPM_P2
2022/07/12 00:02:10;;;;;;;;;12.00;9.00;;;;;;;;5074777;28;45328;-70
2022/07/12 00:04:35;;;;;;;;;6.67;6.67;;;;;;;;5074205;28;45401;-70
2022/07/12 00:07:00;;;;;;;;;7.00;6.00;;;;;;;;5073980;28;46226;-71
2022/07/12 00:09:26;;;;;;;;;7.67;6.00;;;;;;;;5072816;28;45427;-71
2022/07/12 00:11:51;;;;;;;;;21.67;21.67;;;;;;;;5073239;28;46142;-70
2022/07/12 00:14:17;;;;;;;;;8.67;8.67;;;;;;;;5072607;28;45726;-70
2022/07/12 00:16:42;;;;;;;;;8.00;8.00;;;;;;;;5072892;28;45652;-71
2022/07/12 00:19:08;;;;;;;;;7.00;7.00;;;;;;;;5074517;28;45526;-71
2022/07/12 00:21:33;;;;;;;;;7.67;7.00;;;;;;;;5074446;28;45879;-70
2022/07/12 00:23:59;;;;;;;;;12.33;8.00;;;;;;;;5074012;28;45415;-71
2022/07/12 00:26:24;;;;;;;;;7.33;7.33;;;;;;;;5074232;28;45764;-71
2022/07/12 00:28:49;;;;;;;;;5.33;5.33;;;;;;;;5074061;28;45328;-71
2022/07/12 00:31:14;;;;;;;;;7.00;6.00;;;;;;;;5074579;28;45481;-71
2022/07/12 00:33:39;;;;;;;;;10.67;8.00;;;;;;;;5074557;28;45445;-71
2022/07/12 00:36:05;;;;;;;;;9.00;7.00;;;;;;;;5073581;28;46588;-70
2022/07/12 00:38:30;;;;;;;;;7.33;7.33;;;;;;;;5074061;28;45772;-70
2022/07/12 00:40:55;;;;;;;;;8.00;8.00;;;;;;;;5074301;28;45433;-71
2022/07/12 00:43:21;;;;;;;;;8.67;7.67;;;;;;;;5075874;28;45544;-70
2022/07/12 00:45:46;;;;;;;;;6.67;6.67;;;;;;;;5077264;28;46592;-70
2022/07/12 00:48:11;;;;;;;;;11.67;7.33;;;;;;;;5078045;28;45448;-69
2022/07/12 00:50:37;;;;;;;;;9.00;9.00;;;;;;;;5077995;28;45447;-70
2022/07/12 00:53:03;;;;;;;;;8.00;8.00;;;;;;;;5078114;28;45444;-70
2022/07/12 00:55:28;;;;;;;;;6.00;6.00;;;;;;;;5077439;28;45419;-70
2022/07/12 00:57:54;;;;;;;;;7.33;7.33;;;;;;;;5077635;28;45686;-70
2022/07/12 01:00:26;;;;;;;;;8.67;8.00;;;;;;;;5077793;28;45328;-70
2022/07/12 01:02:55;;;;;;;;;12.33;10.00;;;;;;;;5059233;28;45502;-70
2022/07/12 01:05:21;;;;;;;;;6.67;6.67;;;;;;;;5077454;28;45440;-70
2022/07/12 01:07:46;;;;;;;;;8.00;8.00;;;;;;;;5075382;28;45719;-70
2022/07/12 01:10:11;;;;;;;;;9.67;8.33;;;;;;;;5075722;28;45824;-71
2022/07/12 01:12:37;;;;;;;;;7.00;7.00;;;;;;;;5075880;28;45431;-70
2022/07/12 01:15:05;;;;;;;;;9.67;9.67;;;;;;;;5075382;28;46493;-70
2022/07/12 01:17:30;;;;;;;;;8.33;8.33;;;;;;;;5075902;28;45844;-70
2022/07/12 01:19:56;;;;;;;;;8.00;8.00;;;;;;;;5077311;28;45779;-70
2022/07/12 01:22:29;;;;;;;;;10.33;10.33;;;;;;;;5077357;28;45440;-70
2022/07/12 01:24:55;;;;;;;;;9.67;9.67;;;;;;;;5076496;28;46121;-70
2022/07/12 01:27:20;;;;;;;;;11.00;9.33;;;;;;;;5076872;28;45457;-70
2022/07/12 01:29:45;;;;;;;;;11.00;8.00;;;;;;;;5077038;28;45523;-70
2022/07/12 01:32:26;;;;;;;;;7.33;7.33;;;;;;;;5077082;28;45496;-70
2022/07/12 01:34:51;;;;;;;;;10.67;8.00;;;;;;;;5076587;28;46830;-70
2022/07/12 01:37:17;;;;;;;;;9.33;8.33;;;;;;;;5076310;28;45512;-70
2022/07/12 01:39:43;;;;;;;;;8.67;8.67;;;;;;;;5076589;28;45628;-70
2022/07/12 01:42:08;;;;;;;;;7.67;7.67;;;;;;;;5077029;28;45459;-69
2022/07/12 01:44:34;;;;;;;;;9.33;7.67;;;;;;;;5076449;28;45613;-70
2022/07/12 01:46:59;;;;;;;;;9.00;8.00;;;;;;;;5076716;28;45407;-70
2022/07/12 01:49:24;;;;;;;;;8.00;8.00;;;;;;;;5076200;28;45751;-70
2022/07/12 01:51:50;;;;;;;;;8.33;7.00;;;;;;;;5058796;28;45854;-70
2022/07/12 01:54:15;;;;;;;;;10.00;9.33;;;;;;;;5075467;28;46553;-70
2022/07/12 01:56:41;;;;;;;;;8.33;8.33;;;;;;;;5076147;28;45402;-71
2022/07/12 01:59:07;;;;;;;;;8.67;7.00;;;;;;;;5076333;28;45408;-70
2022/07/12 02:01:32;;;;;;;;;11.67;8.67;;;;;;;;5058158;28;45902;-70
2022/07/12 02:04:01;;;;;;;;;9.00;7.67;;;;;;;;5076099;28;45421;-70
2022/07/12 02:06:27;;;;;;;;;8.00;8.00;;;;;;;;5076356;28;45440;-70
2022/07/12 02:08:52;;;;;;;;;12.00;8.67;;;;;;;;5074098;28;45386;-70
2022/07/12 02:11:17;;;;;;;;;8.33;8.00;;;;;;;;5074989;28;45758;-70
2022/07/12 02:13:43;;;;;;;;;8.00;7.00;;;;;;;;5074419;28;45417;-70
2022/07/12 02:16:08;;;;;;;;;9.67;9.67;;;;;;;;5074186;28;45756;-71
2022/07/12 02:18:33;;;;;;;;;10.00;9.00;;;;;;;;5076061;28;45415;-71
2022/07/12 02:21:00;;;;;;;;;7.00;7.00;;;;;;;;5075921;28;45406;-71
2022/07/12 02:23:25;;;;;;;;;10.00;8.67;;;;;;;;5075962;28;46554;-71
2022/07/12 02:25:50;;;;;;;;;13.67;11.67;;;;;;;;5075866;28;45386;-70
2022/07/12 02:28:15;;;;;;;;;10.00;7.00;;;;;;;;5075115;28;45889;-70
2022/07/12 02:30:40;;;;;;;;;13.33;8.33;;;;;;;;5075803;28;45423;-70
2022/07/12 02:33:06;;;;;;;;;9.33;7.33;;;;;;;;5075782;28;46743;-70
2022/07/12 02:35:31;;;;;;;;;10.33;8.33;;;;;;;;5075869;28;45451;-70
2022/07/12 02:37:56;;;;;;;;;10.67;9.67;;;;;;;;5075855;28;45404;-70
2022/07/12 02:43:05;;;;;;;;;12.00;9.33;;;;;;;;5075746;28;45471;-70
2022/07/12 02:45:30;;;;;;;;;8.33;8.00;;;;;;;;5057636;28;45635;-71
2022/07/12 02:47:55;;;;;;;;;11.67;10.00;;;;;;;;5075794;28;45673;-71
2022/07/12 02:50:21;;;;;;;;;14.00;9.00;;;;;;;;5075719;28;45432;-70
2022/07/12 02:52:46;;;;;;;;;7.33;7.33;;;;;;;;5074864;28;46070;-70
2022/07/12 02:55:11;;;;;;;;;12.33;9.00;;;;;;;;5075582;28;45537;-71
2022/07/12 02:57:36;;;;;;;;;12.33;12.33;;;;;;;;5075778;28;45681;-71
2022/07/12 03:00:04;;;;;;;;;11.00;9.00;;;;;;;;5075769;28;45412;-70
2022/07/12 03:02:29;;;;;;;;;12.33;11.67;;;;;;;;5074899;28;47020;-70
2022/07/12 03:04:54;;;;;;;;;12.67;9.33;;;;;;;;5075320;28;45512;-70
2022/07/12 03:07:19;;;;;;;;;11.33;10.00;;;;;;;;5074785;28;45530;-71
2022/07/12 03:09:45;;;;;;;;;10.00;10.00;;;;;;;;5073689;28;45517;-70
2022/07/12 03:12:10;;;;;;;;;12.00;9.67;;;;;;;;5073130;28;45724;-70
2022/07/12 03:14:35;;;;;;;;;11.67;11.00;;;;;;;;5073563;28;45427;-71
2022/07/12 03:17:00;;;;;;;;;11.33;9.33;;;;;;;;5074221;28;45757;-70
2022/07/12 03:19:26;;;;;;;;;11.00;9.33;;;;;;;;5075539;28;45467;-70
2022/07/12 03:21:51;;;;;;;;;9.67;9.67;;;;;;;;5075102;28;46513;-70
2022/07/12 03:24:16;;;;;;;;;10.33;9.33;;;;;;;;5074649;28;45443;-71
2022/07/12 03:26:41;;;;;;;;;12.67;12.67;;;;;;;;5075101;28;45417;-71
2022/07/12 03:29:07;;;;;;;;;10.00;10.00;;;;;;;;5075325;28;45465;-70
2022/07/12 03:31:33;;;;;;;;;11.33;10.00;;;;;;;;5074972;28;45628;-71
2022/07/12 03:33:58;;;;;;;;;11.33;11.33;;;;;;;;5074543;28;45515;-70
2022/07/12 03:36:23;;;;;;;;;10.67;9.67;;;;;;;;5074816;28;45390;-70
2022/07/12 03:38:48;;;;;;;;;11.67;11.67;;;;;;;;5074017;28;45721;-71
2022/07/12 03:41:14;;;;;;;;;10.67;10.67;;;;;;;;5074605;28;46284;-70
2022/07/12 03:43:39;;;;;;;;;16.33;14.33;;;;;;;;5074549;28;45415;-70
2022/07/12 03:46:04;;;;;;;;;15.00;14.00;;;;;;;;5075074;28;46351;-70
2022/07/12 03:48:29;;;;;;;;;12.00;10.33;;;;;;;;5075111;28;45581;-70
2022/07/12 03:50:55;;;;;;;;;15.00;9.67;;;;;;;;5074304;28;47246;-70
2022/07/12 03:53:21;;;;;;;;;12.67;11.00;;;;;;;;5074818;28;45398;-70
2022/07/12 03:55:46;;;;;;;;;13.33;11.67;;;;;;;;5074116;28;45345;-70
2022/07/12 03:58:11;;;;;;;;;20.00;20.00;;;;;;;;5074978;28;45430;-71
2022/07/12 04:00:37;;;;;;;;;15.33;13.67;;;;;;;;5074613;28;45696;-70
2022/07/12 04:03:02;;;;;;;;;11.00;11.00;;;;;;;;5074210;28;45587;-70
2022/07/12 04:05:27;;;;;;;;;14.00;11.67;;;;;;;;5074403;28;45413;-70
2022/07/12 04:07:53;;;;;;;;;14.67;13.00;;;;;;;;5073692;28;45384;-70
2022/07/12 04:10:19;;;;;;;;;11.67;11.33;;;;;;;;5072470;28;46484;-70
2022/07/12 04:12:44;;;;;;;;;13.33;12.00;;;;;;;;5072633;28;45481;-70
2022/07/12 04:15:10;;;;;;;;;11.67;8.33;;;;;;;;5071997;28;45447;-70
2022/07/12 04:17:36;;;;;;;;;11.00;9.00;;;;;;;;5074083;28;45372;-70
2022/07/12 04:20:01;;;;;;;;;11.33;11.33;;;;;;;;5078031;28;47206;-71
2022/07/12 04:22:26;;;;;;;;;12.33;11.67;;;;;;;;5077990;28;45409;-70
2022/07/12 04:24:52;;;;;;;;;15.67;14.67;;;;;;;;5077743;28;45514;-71
2022/07/12 04:27:17;;;;;;;;;17.67;14.00;;;;;;;;5077748;28;45536;-71
2022/07/12 04:29:43;;;;;;;;;13.00;13.00;;;;;;;;5077600;28;45751;-70
2022/07/12 04:32:08;;;;;;;;;17.33;13.67;;;;;;;;5077708;28;45442;-70
2022/07/12 04:34:33;;;;;;;;;12.00;12.00;;;;;;;;5077775;28;45525;-71
2022/07/12 04:36:58;;;;;;;;;17.33;17.00;;;;;;;;5077691;28;45748;-71
2022/07/12 04:39:23;;;;;;;;;18.67;14.33;;;;;;;;5058986;28;46722;-71
2022/07/12 04:41:49;;;;;;;;;13.67;10.67;;;;;;;;5077647;28;45343;-71
2022/07/12 04:44:14;;;;;;;;;17.67;15.67;;;;;;;;5077795;28;45462;-71
2022/07/12 04:46:39;;;;;;;;;15.33;15.33;;;;;;;;5077408;28;45688;-71
2022/07/12 04:49:06;;;;;;;;;15.33;14.33;;;;;;;;5077480;28;46582;-71
2022/07/12 04:51:31;;;;;;;;;13.33;12.33;;;;;;;;5077498;28;45639;-71
2022/07/12 04:53:57;;;;;;;;;13.00;9.67;;;;;;;;5077423;28;45776;-72
2022/07/12 04:56:22;;;;;;;;;11.33;11.33;;;;;;;;5077690;28;45617;-72
2022/07/12 04:58:48;;;;;;;;;15.00;14.00;;;;;;;;5076850;28;45589;-71
2022/07/12 05:01:13;;;;;;;;;15.00;14.33;;;;;;;;5077435;28;45517;-71
2022/07/12 05:03:38;;;;;;;;;20.33;16.00;;;;;;;;5077148;28;45418;-71
2022/07/12 05:06:04;;;;;;;;;9.67;9.67;;;;;;;;5059356;28;45468;-71
2022/07/12 05:08:29;;;;;;;;;15.33;13.67;;;;;;;;5075126;28;46715;-71
2022/07/12 05:10:54;;;;;;;;;29.67;25.00;;;;;;;;5075053;28;45445;-71
2022/07/12 05:13:20;;;;;;;;;18.67;15.67;;;;;;;;5075714;28;45706;-71
2022/07/12 05:15:45;;;;;;;;;17.67;16.00;;;;;;;;5075862;28;45412;-71
2022/07/12 05:18:10;;;;;;;;;13.67;12.00;;;;;;;;5057743;28;47166;-71
2022/07/12 05:20:35;;;;;;;;;13.33;12.33;;;;;;;;5076945;28;45482;-71
2022/07/12 05:23:01;;;;;;;;;15.67;13.67;;;;;;;;5077074;28;45434;-71
2022/07/12 05:25:26;;;;;;;;;16.33;15.00;;;;;;;;5077227;28;45462;-71
2022/07/12 05:27:51;;;;;;;;;16.67;16.33;;;;;;;;5076326;27;45501;-71
2022/07/12 05:30:17;;;;;;;;;18.33;16.67;;;;;;;;5075365;28;45551;-71
2022/07/12 05:32:42;;;;;;;;;16.33;15.33;;;;;;;;5077025;28;45534;-71
2022/07/12 05:35:07;;;;;;;;;15.67;14.00;;;;;;;;5077114;28;45438;-71
2022/07/12 05:37:32;;;;;;;;;17.00;13.67;;;;;;;;5077326;28;46273;-71
2022/07/12 05:39:58;;;;;;;;;16.00;15.67;;;;;;;;5079049;28;45192;-71
2022/07/12 05:42:23;;;;;;;;;12.67;11.67;;;;;;;;5079640;28;45287;-71
2022/07/12 05:44:48;;;;;;;;;16.00;15.00;;;;;;;;5079629;28;45458;-71
2022/07/12 05:47:13;;;;;;;;;18.00;14.67;;;;;;;;5078984;28;45474;-71
2022/07/12 05:49:39;;;;;;;;;16.00;15.00;;;;;;;;5079378;28;45388;-70
2022/07/12 05:54:48;;;;;;;;;15.00;14.33;;;;;;;;5079410;28;45281;-69
2022/07/12 05:57:14;;;;;;;;;14.33;14.33;;;;;;;;5078975;28;46659;-69
2022/07/12 05:59:39;;;;;;;;;15.67;15.67;;;;;;;;5078888;28;45366;-69
2022/07/12 06:02:04;;;;;;;;;22.33;17.67;;;;;;;;5078905;28;45624;-70
2022/07/12 06:04:30;;;;;;;;;20.67;17.67;;;;;;;;5079098;28;45390;-70
2022/07/12 06:06:56;;;;;;;;;16.00;15.00;;;;;;;;5078992;28;46362;-70
2022/07/12 06:09:21;;;;;;;;;14.67;14.67;;;;;;;;5078777;28;45554;-69
2022/07/12 06:11:46;;;;;;;;;13.67;12.33;;;;;;;;5078815;28;45358;-70
2022/07/12 06:14:11;;;;;;;;;17.00;13.33;;;;;;;;5078973;27;45529;-69
2022/07/12 06:16:37;;;;;;;;;16.67;16.00;;;;;;;;5060363;28;45319;-70
2022/07/12 06:19:02;;;;;;;;;13.33;12.33;;;;;;;;5078807;28;45335;-70
2022/07/12 06:21:27;;;;;;;;;12.33;12.00;;;;;;;;5079094;28;45146;-70
2022/07/12 06:23:53;;;;;;;;;15.33;12.33;;;;;;;;5078824;28;45430;-70
2022/07/12 06:26:18;;;;;;;;;11.00;11.00;;;;;;;;5078307;28;46577;-69
2022/07/12 06:28:43;;;;;;;;;10.67;10.67;;;;;;;;5078708;28;45317;-70
2022/07/12 06:31:09;;;;;;;;;10.00;10.00;;;;;;;;5078561;28;45562;-70
2022/07/12 06:33:34;;;;;;;;;7.67;7.67;;;;;;;;5079090;28;45383;-69
2022/07/12 06:35:59;;;;;;;;;14.67;13.00;;;;;;;;5078392;28;46343;-70
2022/07/12 06:38:25;;;;;;;;;9.00;9.00;;;;;;;;5078280;28;45312;-70
2022/07/12 06:40:50;;;;;;;;;11.67;11.67;;;;;;;;5077759;28;45406;-70
2022/07/12 06:43:15;;;;;;;;;11.33;10.33;;;;;;;;5078760;28;45283;-70
2022/07/12 06:45:40;;;;;;;;;13.00;13.00;;;;;;;;5078538;28;46481;-69
2022/07/12 06:48:06;;;;;;;;;8.67;8.00;;;;;;;;5078280;28;45463;-71
2022/07/12 06:50:31;;;;;;;;;15.67;13.67;;;;;;;;5078365;28;45284;-71
2022/07/12 06:52:56;;;;;;;;;9.33;8.33;;;;;;;;5078426;28;45398;-71
2022/07/12 06:55:22;;;;;;;;;12.67;12.00;;;;;;;;5078186;28;45357;-71
2022/07/12 06:57:47;;;;;;;;;12.67;12.33;;;;;;;;5078150;28;45396;-71
2022/07/12 07:00:12;;;;;;;;;14.67;13.00;;;;;;;;5078128;28;45295;-71
2022/07/12 07:02:39;;;;;;;;;14.00;11.00;;;;;;;;5078193;28;45156;-71
2022/07/12 07:05:04;;;;;;;;;13.67;10.00;;;;;;;;5077883;28;47006;-71
2022/07/12 07:07:30;;;;;;;;;15.67;12.67;;;;;;;;5077739;28;45395;-71
2022/07/12 07:09:55;;;;;;;;;10.67;9.67;;;;;;;;5077712;28;45216;-72
2022/07/12 07:12:20;;;;;;;;;11.33;10.33;;;;;;;;5078089;28;45414;-70
2022/07/12 07:14:45;;;;;;;;;10.00;10.00;;;;;;;;5077634;28;46570;-70
2022/07/12 07:17:10;;;;;;;;;9.67;8.00;;;;;;;;5077877;28;45227;-70
2022/07/12 07:19:36;;;;;;;;;10.33;9.00;;;;;;;;5078113;28;45375;-69
2022/07/12 07:22:02;;;;;;;;;10.67;10.67;;;;;;;;5078005;28;45367;-70
2022/07/12 07:24:27;;;;;;;;;11.67;11.00;;;;;;;;5077599;28;45701;-70
2022/07/12 07:26:52;;;;;;;;;9.67;9.67;;;;;;;;5077436;28;45323;-72
2022/07/12 07:32:02;;;;;;;;;14.00;10.00;;;;;;;;5076893;28;45741;-70
2022/07/12 07:34:27;;;;;;;;;14.67;13.67;;;;;;;;5077544;28;45602;-72
2022/07/12 07:36:52;;;;;;;;;10.00;10.00;;;;;;;;5077479;28;45317;-71
2022/07/12 07:39:18;;;;;;;;;11.67;10.00;;;;;;;;5077365;28;45609;-72
2022/07/12 07:41:43;;;;;;;;;10.33;9.00;;;;;;;;5077698;28;45427;-72
2022/07/12 07:44:08;;;;;;;;;10.00;8.00;;;;;;;;5077469;28;45452;-72
2022/07/12 07:46:34;;;;;;;;;9.00;9.00;;;;;;;;5077828;28;45339;-72
2022/07/12 07:48:59;;;;;;;;;11.67;11.00;;;;;;;;5077288;28;45377;-72
2022/07/12 07:51:24;;;;;;;;;10.33;10.33;;;;;;;;5077070;28;45404;-72
2022/07/12 07:53:49;;;;;;;;;11.67;9.33;;;;;;;;5079599;28;46598;-72
2022/07/12 07:56:14;;;;;;;;;11.00;11.00;;;;;;;;5080492;28;45451;-73
2022/07/12 07:58:40;;;;;;;;;13.67;13.67;;;;;;;;5081507;28;45351;-72
2022/07/12 08:01:05;;;;;;;;;12.67;12.67;;;;;;;;5080954;27;45426;-72
2022/07/12 08:03:30;;;;;;;;;10.67;10.00;;;;;;;;5080289;28;45687;-71
2022/07/12 08:05:57;;;;;;;;;9.00;9.00;;;;;;;;5081188;28;45402;-73
2022/07/12 08:08:22;;;;;;;;;9.00;9.00;;;;;;;;5081054;28;45314;-72
2022/07/12 08:10:49;;;;;;;;;14.33;12.33;;;;;;;;5081029;28;45384;-72
2022/07/12 08:13:14;;;;;;;;;9.67;8.00;;;;;;;;5080680;28;46539;-72
2022/07/12 08:15:39;;;;;;;;;8.33;6.67;;;;;;;;5077815;28;45541;-73
2022/07/12 08:18:05;;;;;;;;;7.00;6.00;;;;;;;;5080749;28;45270;-73
2022/07/12 08:20:30;;;;;;;;;8.67;8.67;;;;;;;;5080858;28;45390;-73
2022/07/12 08:22:56;;;;;;;;;21.33;18.33;;;;;;;;5079409;28;45545;-69
2022/07/12 08:25:21;;;;;;;;;66.50;52.25;;;;;;;;5079975;28;45380;-72
2022/07/12 08:27:47;;;;;;;;;21.67;19.33;;;;;;;;5079914;27;45489;-72
2022/07/12 08:30:12;;;;;;;;;9.67;8.33;;;;;;;;5080569;28;45301;-72
2022/07/12 08:32:42;;;;;;;;;9.33;9.33;;;;;;;;5080264;28;45521;-72
2022/07/12 08:35:07;;;;;;;;;6.67;6.67;;;;;;;;5080352;28;45336;-72
2022/07/12 08:37:33;;;;;;;;;4.33;4.33;;;;;;;;5080442;28;45330;-74
2022/07/12 08:39:58;;;;;;;;;5.67;5.67;;;;;;;;5080307;28;45362;-74
2022/07/12 08:42:23;;;;;;;;;6.00;5.67;;;;;;;;5080180;28;45352;-73
2022/07/12 08:44:55;;;;;;;;;5.00;5.00;;;;;;;;5079920;28;45496;-73
2022/07/12 08:47:20;;;;;;;;;5.00;5.00;;;;;;;;5080276;28;45409;-71
2022/07/12 08:50:04;;;;;;;;;3.00;3.00;;;;;;;;5080357;28;45288;-72
2022/07/12 08:52:29;;;;;;;;;6.67;4.33;;;;;;;;5079842;28;45679;-75
2022/07/12 08:54:55;;;;;;;;;2.67;2.67;;;;;;;;5079881;28;45466;-70
2022/07/12 08:57:30;;;;;;;;;3.00;3.00;;;;;;;;5080067;28;45359;-71
2022/07/12 08:59:58;;;;;;;;;3.00;3.00;;;;;;;;5079702;28;45362;-71
2022/07/12 09:02:24;;;;;;;;;5.33;4.67;;;;;;;;5079587;28;46317;-71
2022/07/12 09:05:05;;;;;;;;;6.33;3.67;;;;;;;;5079630;28;45372;-71
2022/07/12 09:07:30;;;;;;;;;2.00;2.00;;;;;;;;5079797;28;45328;-73
2022/07/12 09:10:02;;;;;;;;;3.67;3.33;;;;;;;;5079843;28;45465;-72
2022/07/12 09:12:27;;;;;;;;;2.00;2.00;;;;;;;;5079600;28;45470;-72
2022/07/12 09:14:52;;;;;;;;;2.33;2.33;;;;;;;;5079843;28;45297;-72
2022/07/12 09:17:21;;;;;;;;;3.00;3.00;;;;;;;;5079715;28;45371;-72
2022/07/12 09:19:55;;;;;;;;;4.00;4.00;;;;;;;;5080139;28;45439;-72
2022/07/12 09:22:20;;;;;;;;;4.67;4.00;;;;;;;;5079497;28;46336;-72
2022/07/12 09:24:46;;;;;;;;;3.00;3.00;;;;;;;;5079448;28;45466;-72
2022/07/12 09:27:11;;;;;;;;;2.00;2.00;;;;;;;;5079509;28;45237;-71
2022/07/12 09:29:49;;;;;;;;;3.00;2.67;;;;;;;;5079577;28;45388;-73
2022/07/12 09:37:42;;;;;;;;;4.00;4.00;;;;;;;;5079663;28;45422;-72
2022/07/12 09:40:07;;;;;;;;;3.33;3.33;;;;;;;;5079411;28;45429;-72
2022/07/12 09:42:33;;;;;;;;;3.00;3.00;;;;;;;;5077734;28;47500;-73
2022/07/12 09:45:00;;;;;;;;;4.67;4.67;;;;;;;;5078746;28;45423;-73
2022/07/12 09:47:26;;;;;;;;;3.00;3.00;;;;;;;;5076021;28;45473;-74
2022/07/12 09:49:52;;;;;;;;;1.67;1.67;;;;;;;;5078747;28;45224;-74
2022/07/12 09:52:24;;;;;;;;;5.67;5.00;;;;;;;;5078070;28;46575;-74
2022/07/12 09:54:50;;;;;;;;;5.00;3.67;;;;;;;;5075633;28;45386;-74
2022/07/12 09:57:25;;;;;;;;;4.67;3.33;;;;;;;;5078608;28;45607;-74
2022/07/12 09:59:52;;;;;;;;;3.00;3.00;;;;;;;;5076305;28;45651;-74
2022/07/12 10:02:17;;;;;;;;;6.33;3.00;;;;;;;;5078053;28;46802;-75
2022/07/12 10:04:43;;;;;;;;;1.67;1.33;;;;;;;;5078466;28;45366;-74
2022/07/12 10:07:09;;;;;;;;;1.33;1.33;;;;;;;;5079172;28;45611;-75
2022/07/12 10:09:35;;;;;;;;;3.00;3.00;;;;;;;;5079345;28;45277;-78
2022/07/12 10:12:01;;;;;;;;;3.50;1.75;;;;;;;;5078600;28;47235;-79
2022/07/12 10:14:27;;;;;;;;;4.00;1.75;;;;;;;;5078347;28;45424;-75
2022/07/12 10:16:52;;;;;;;;;1.00;1.00;;;;;;;;5077838;28;45413;-75
2022/07/12 10:19:20;;;;;;;;;4.50;4.25;;;;;;;;5079035;28;45287;-76
2022/07/12 10:21:48;;;;;;;;;2.50;2.50;;;;;;;;5078572;28;47514;-76
2022/07/12 10:24:32;;;;;;;;;2.75;2.50;;;;;;;;5078814;28;45477;-76
2022/07/12 10:27:17;;;;;;;;;3.00;1.75;;;;;;;;5078170;28;45340;-75
2022/07/12 10:29:46;;;;;;;;;1.25;1.25;;;;;;;;5077707;28;45890;-76
2022/07/12 10:32:25;;;;;;;;;1.25;1.25;;;;;;;;5078304;28;45466;-80
2022/07/12 10:35:00;;;;;;;;;4.00;2.50;;;;;;;;5078291;28;45319;-77
2022/07/12 10:37:25;;;;;;;;;2.00;2.00;;;;;;;;5076596;28;45241;-73
2022/07/12 10:40:09;;;;;;;;;2.00;2.00;;;;;;;;5077133;28;45642;-70
2022/07/12 10:42:34;;;;;;;;;0.00;0.00;;;;;;;;5077648;28;46366;-72
2022/07/12 10:45:13;;;;;;;;;0.00;0.00;;;;;;;;5078505;28;45414;-71
2022/07/12 10:47:54;;;;;;;;;1.50;1.50;;;;;;;;5078370;28;45367;-71
2022/07/12 10:50:39;;;;;;;;;0.75;0.75;;;;;;;;5078523;28;45374;-75
2022/07/12 10:53:25;;;;;;;;;1.00;1.00;;;;;;;;5063348;27;47995;-73
2022/07/12 10:56:09;;;;;;;;;1.00;1.00;;;;;;;;5079416;27;45285;-72
2022/07/12 10:58:48;;;;;;;;;0.50;0.50;;;;;;;;5078216;27;45216;-73
2022/07/12 11:01:15;;;;;;;;;4.00;3.00;;;;;;;;5087940;27;45246;-71
2022/07/12 11:03:42;;;;;;;;;3.25;3.25;;;;;;;;5078975;27;47017;-73
2022/07/12 11:06:09;;;;;;;;;3.25;1.25;;;;;;;;5082072;27;45852;-73
2022/07/12 11:08:52;;;;;;;;;2.50;2.50;;;;;;;;5079345;27;45422;-76
2022/07/12 11:11:18;;;;;;;;;5.00;3.00;;;;;;;;5078594;27;45520;-72
2022/07/12 11:13:44;;;;;;;;;3.00;2.75;;;;;;;;5077981;27;45447;-72
2022/07/12 11:16:09;;;;;;;;;6.25;3.50;;;;;;;;5076810;28;45419;-73
2022/07/12 11:18:35;;;;;;;;;2.00;1.00;;;;;;;;5081605;27;45454;-76
2022/07/12 11:21:02;;;;;;;;;1.25;1.25;;;;;;;;5077417;27;45364;-80
2022/07/12 11:23:28;;;;;;;;;1.75;1.75;;;;;;;;5076700;27;46391;-74
2022/07/12 11:25:54;;;;;;;;;0.00;0.00;;;;;;;;5076846;28;45465;-76
2022/07/12 11:28:23;;;;;;;;;3.00;1.00;;;;;;;;5081292;27;45791;-72
2022/07/12 11:30:49;;;;;;;;;2.00;0.50;;;;;;;;5088433;27;45502;-77
2022/07/12 11:33:14;;;;;;;;;2.00;2.00;;;;;;;;5097677;27;46159;-74
2022/07/12 11:35:43;;;;;;;;;2.25;2.25;;;;;;;;5097462;27;45358;-77
2022/07/12 11:38:08;;;;;;;;;1.67;1.67;;;;;;;;5097726;27;45337;-77
2022/07/12 11:40:33;;;;;;;;;2.67;2.67;;;;;;;;5097617;27;45463;-76
2022/07/12 11:42:59;;;;;;;;;2.33;2.00;;;;;;;;5086976;27;46748;-76
2022/07/12 11:45:26;;;;;;;;;3.67;2.00;;;;;;;;5076929;28;45518;-76
2022/07/12 11:47:52;;;;;;;;;3.67;1.67;;;;;;;;5076905;28;45615;-76
2022/07/12 11:50:18;;;;;;;;;2.67;2.00;;;;;;;;5077037;28;45413;-78
2022/07/12 11:52:43;;;;;;;;;2.00;2.00;;;;;;;;5076797;28;45438;-78
2022/07/12 11:55:09;;;;;;;;;2.67;2.00;;;;;;;;5077321;28;45398;-75
2022/07/12 11:57:34;;;;;;;;;5.00;3.33;;;;;;;;5077696;28;45414;-75
2022/07/12 12:00:32;;;;;;;;;3.00;1.67;;;;;;;;5077186;28;45377;-72
2022/07/12 12:02:58;;;;;;;;;2.33;1.67;;;;;;;;5014600;28;47476;-72
2022/07/12 12:05:23;;;;;;;;;2.00;2.00;;;;;;;;5014137;28;45369;-72
2022/07/12 12:07:48;;;;;;;;;2.00;2.00;;;;;;;;5015208;28;45551;-72
2022/07/12 12:10:15;;;;;;;;;2.00;2.00;;;;;;;;5011382;28;45569;-77
2022/07/12 12:12:43;;;;;;;;;0.67;0.67;;;;;;;;5014698;28;45469;-73
2022/07/12 12:15:09;;;;;;;;;1.67;1.67;;;;;;;;5011684;28;45374;-74
2022/07/12 12:17:35;;;;;;;;;2.67;2.67;;;;;;;;5013656;28;45482;-76
2022/07/12 12:20:17;;;;;;;;;3.33;3.33;;;;;;;;5011354;28;45468;-72
2022/07/12 12:22:42;;;;;;;;;3.33;3.33;;;;;;;;4997211;28;47132;-71
2022/07/12 12:25:12;;;;;;;;;1.33;1.33;;;;;;;;5010190;28;45451;-69
2022/07/12 12:27:48;;;;;;;;;1.67;1.67;;;;;;;;5013678;28;45228;-71
2022/07/12 12:30:14;;;;;;;;;1.33;1.33;;;;;;;;5013632;28;45473;-71
2022/07/12 12:32:52;;;;;;;;;1.67;1.67;;;;;;;;5013129;28;46644;-70
2022/07/12 12:35:18;;;;;;;;;1.00;1.00;;;;;;;;5011595;28;46100;-70
2022/07/12 12:37:49;;;;;;;;;0.67;0.00;;;;;;;;5023451;28;45480;-72
2022/07/12 12:40:19;;;;;;;;;1.00;1.00;;;;;;;;5082647;27;45274;-71
2022/07/12 12:42:44;;;;;;;;;2.00;2.00;;;;;;;;5078458;28;46307;-71
2022/07/12 12:45:20;;;;;;;;;2.00;2.00;;;;;;;;5080068;27;45452;-72
2022/07/12 12:47:59;;;;;;;;;2.67;2.00;;;;;;;;5091846;27;45367;-70
2022/07/12 12:50:37;;;;;;;;;1.67;1.67;;;;;;;;5096099;27;45427;-71
2022/07/12 12:53:14;;;;;;;;;1.33;1.33;;;;;;;;5081753;27;45466;-71
2022/07/12 12:55:40;;;;;;;;;1.67;1.67;;;;;;;;5079454;28;45377;-72
2022/07/12 12:58:05;;;;;;;;;1.67;1.67;;;;;;;;5084138;27;45455;-71
2022/07/12 13:00:31;;;;;;;;;3.33;1.33;;;;;;;;5051939;28;45534;-72
2022/07/12 13:02:59;;;;;;;;;0.67;0.67;;;;;;;;5078514;27;45501;-72
2022/07/12 13:05:25;;;;;;;;;2.67;1.00;;;;;;;;5078641;27;45509;-73
2022/07/12 13:07:50;;;;;;;;;1.00;1.00;;;;;;;;5078844;27;45470;-72
2022/07/12 13:10:15;;;;;;;;;3.00;3.00;;;;;;;;5078956;27;45505;-72
2022/07/12 13:12:42;;;;;;;;;2.67;2.67;;;;;;;;5078412;27;45858;-71
2022/07/12 13:15:07;;;;;;;;;3.33;3.33;;;;;;;;5079622;27;45883;-70
2022/07/12 13:17:33;;;;;;;;;5.00;3.67;;;;;;;;5080648;27;46791;-72
2022/07/12 13:19:58;;;;;;;;;3.33;3.33;;;;;;;;5079810;27;45506;-73
2022/07/12 13:22:23;;;;;;;;;5.00;3.00;;;;;;;;5078454;28;46343;-72
2022/07/12 13:24:49;;;;;;;;;2.33;2.33;;;;;;;;5078510;28;45402;-71
2022/07/12 13:27:15;;;;;;;;;3.00;3.00;;;;;;;;5078807;28;45511;-71
2022/07/12 13:29:40;;;;;;;;;5.67;5.67;;;;;;;;5081235;27;45526;-72
2022/07/12 13:32:06;;;;;;;;;3.00;3.00;;;;;;;;5080629;27;46732;-71
2022/07/12 13:34:31;;;;;;;;;3.33;3.33;;;;;;;;5078517;27;45654;-71
2022/07/12 13:36:56;;;;;;;;;3.33;3.33;;;;;;;;5078786;28;45279;-71
2022/07/12 13:42:05;;;;;;;;;4.00;2.67;;;;;;;;5078265;27;45299;-71
2022/07/12 13:44:31;;;;;;;;;2.33;2.33;;;;;;;;5079302;27;45451;-72
2022/07/12 13:46:56;;;;;;;;;5.00;3.67;;;;;;;;5078714;28;45335;-71
2022/07/12 13:49:21;;;;;;;;;3.67;3.67;;;;;;;;5081665;27;45755;-71
2022/07/12 13:51:47;;;;;;;;;12.33;12.33;;;;;;;;5077272;28;45501;-71
2022/07/12 13:54:12;;;;;;;;;3.00;3.00;;;;;;;;5084386;27;45389;-70
2022/07/12 13:56:37;;;;;;;;;4.00;4.00;;;;;;;;5078722;28;45310;-75
2022/07/12 13:59:04;;;;;;;;;2.00;2.00;;;;;;;;5078736;27;45473;-74
2022/07/12 14:01:29;;;;;;;;;3.00;3.00;;;;;;;;5078097;28;45332;-74
2022/07/12 14:03:55;;;;;;;;;3.00;3.00;;;;;;;;5078354;28;45418;-74
2022/07/12 14:06:20;;;;;;;;;7.33;7.33;;;;;;;;5077659;27;45515;-75
2022/07/12 14:08:45;;;;;;;;;4.00;4.00;;;;;;;;5079581;27;45336;-75
2022/07/12 14:11:10;;;;;;;;;4.67;4.67;;;;;;;;5077958;27;45512;-76
2022/07/12 14:13:36;;;;;;;;;4.00;4.00;;;;;;;;5080914;27;45466;-74
2022/07/12 14:16:01;;;;;;;;;4.33;4.33;;;;;;;;5078554;27;45430;-75
2022/07/12 14:18:26;;;;;;;;;9.67;8.67;;;;;;;;5082278;27;45509;-73
2022/07/12 14:20:51;;;;;;;;;4.50;4.00;;;;;;;;5078179;27;45581;-72
2022/07/12 14:23:17;;;;;;;;;4.00;3.00;;;;;;;;5080701;27;45456;-73
2022/07/12 14:25:42;;;;;;;;;5.33;5.33;;;;;;;;5078258;28;45347;-73
2022/07/12 14:28:08;;;;;;;;;6.00;6.00;;;;;;;;5077407;28;45421;-74
2022/07/12 14:30:33;;;;;;;;;3.67;3.67;;;;;;;;5076906;28;47402;-73
2022/07/12 14:32:58;;;;;;;;;4.00;3.00;;;;;;;;5077305;27;45493;-73
2022/07/12 14:35:23;;;;;;;;;2.67;2.67;;;;;;;;5078076;27;45502;-72
2022/07/12 14:37:49;;;;;;;;;3.00;3.00;;;;;;;;5079138;27;45359;-71
2022/07/12 14:40:14;;;;;;;;;2.67;2.67;;;;;;;;5077314;28;46483;-71
2022/07/12 14:42:40;;;;;;;;;2.67;2.67;;;;;;;;5077148;28;45351;-73
2022/07/12 14:45:06;;;;;;;;;2.00;2.00;;;;;;;;5077161;28;45339;-72
2022/07/12 14:47:31;;;;;;;;;2.67;2.67;;;;;;;;5077898;28;45553;-73